Terminal Aerodrome Forecast
Issued by NWS

Home | Current Version | Previous Version | Text Only | Print | Product List | Glossary On
Versions: 1 2 3 4 5 6 7 8 9 10 11 12 13 14 15 16 17 18
000
FTUS46 KPDT 252300
TAFDLS
TAF
KDLS 252320Z 2600/2624 30010G20KT P6SM VCSH OVC045
     FM260600 29005KT P6SM BKN045 BKN100
     FM261200 VRB03KT 5SM BR SCT020 BKN045
     FM261700 VRB03KT P6SM BKN045 BKN150=

USA.gov is the U.S. government's official web portal to all federal, state and local government web resources and services.